TimeMDT,TemperatureF,Dew PointF,Humidity,Sea Level PressureIn,VisibilityMPH,Wind Direction,Wind SpeedMPH,Gust SpeedMPH,PrecipitationIn,Events,Conditions,WindDirDegrees,DateUTC
12:15 AM,57.2,28.4,33,30.04,10.0,NNW,15.0,25.3,N/A,,Overcast,340,2013-04-28 06:15:00
12:35 AM,57.2,28.4,33,30.04,10.0,NNE,16.1,20.7,N/A,,Overcast,30,2013-04-28 06:35:00
12:55 AM,57.2,28.4,33,30.03,10.0,NNE,13.8,20.7,N/A,,Overcast,20,2013-04-28 06:55:00
1:15 AM,55.4,28.4,36,30.03,10.0,North,12.7,-,N/A,,Overcast,360,2013-04-28 07:15:00
1:35 AM,55.4,28.4,36,30.04,10.0,North,12.7,-,N/A,,Mostly Cloudy,360,2013-04-28 07:35:00
1:55 AM,53.6,30.2,41,30.03,10.0,North,13.8,-,N/A,,Mostly Cloudy,360,2013-04-28 07:55:00
2:15 AM,53.6,30.2,41,30.03,10.0,North,15.0,-,N/A,,Mostly Cloudy,10,2013-04-28 08:15:00
2:35 AM,53.6,30.2,41,30.04,10.0,North,11.5,-,N/A,,Overcast,10,2013-04-28 08:35:00
2:55 AM,53.6,30.2,41,30.04,10.0,North,12.7,-,N/A,,Overcast,360,2013-04-28 08:55:00
3:15 AM,53.6,32.0,44,30.05,10.0,North,13.8,-,N/A,,Overcast,360,2013-04-28 09:15:00
3:35 AM,53.6,30.2,41,30.05,10.0,North,13.8,20.7,N/A,,Overcast,10,2013-04-28 09:35:00
3:55 AM,53.6,30.2,41,30.05,10.0,North,6.9,-,N/A,,Overcast,360,2013-04-28 09:55:00
4:15 AM,53.6,30.2,41,30.06,10.0,North,10.4,-,N/A,,Overcast,10,2013-04-28 10:15:00
4:35 AM,51.8,30.2,44,30.06,10.0,Calm,Calm,-,N/A,,Overcast,0,2013-04-28 10:35:00
4:55 AM,50.0,30.2,47,30.06,10.0,SSW,6.9,-,N/A,,Overcast,200,2013-04-28 10:55:00
5:15 AM,48.2,32.0,54,30.06,10.0,SSW,9.2,-,N/A,,Overcast,210,2013-04-28 11:15:00
5:35 AM,48.2,32.0,54,30.06,10.0,SSW,6.9,-,N/A,,Overcast,210,2013-04-28 11:35:00
6:15 AM,48.2,32.0,54,30.04,10.0,SSW,10.4,-,N/A,,Overcast,200,2013-04-28 12:15:00
6:35 AM,48.2,32.0,54,30.04,10.0,SW,11.5,-,N/A,,Mostly Cloudy,220,2013-04-28 12:35:00
7:15 AM,48.2,33.8,58,30.04,10.0,SSW,8.1,-,N/A,,Mostly Cloudy,210,2013-04-28 13:15:00
7:35 AM,48.2,35.6,62,30.05,9.0,SSW,5.8,-,N/A,,Partly Cloudy,210,2013-04-28 13:35:00
7:55 AM,51.8,33.8,50,30.05,10.0,SSW,5.8,-,N/A,,Mostly Cloudy,200,2013-04-28 13:55:00
8:15 AM,51.8,32.0,47,30.05,10.0,SW,16.1,21.9,N/A,,Overcast,220,2013-04-28 14:15:00
8:35 AM,51.8,33.8,50,30.06,10.0,WSW,8.1,-,N/A,,Overcast,250,2013-04-28 14:35:00
8:55 AM,53.6,33.8,47,30.06,10.0,NW,6.9,-,N/A,,Overcast,310,2013-04-28 14:55:00
9:15 AM,53.6,33.8,47,30.06,10.0,WNW,8.1,-,N/A,,Overcast,300,2013-04-28 15:15:00
9:35 AM,53.6,33.8,47,30.06,10.0,North,5.8,-,N/A,,Overcast,10,2013-04-28 15:35:00
9:55 AM,55.4,33.8,44,30.05,10.0,North,8.1,-,N/A,,Overcast,350,2013-04-28 15:55:00
10:15 AM,55.4,33.8,44,30.04,10.0,North,10.4,-,N/A,,Overcast,350,2013-04-28 16:15:00
10:35 AM,57.2,33.8,41,30.03,10.0,North,8.1,-,N/A,,Overcast,350,2013-04-28 16:35:00
10:55 AM,57.2,30.2,36,30.03,10.0,NNW,4.6,-,N/A,,Overcast,340,2013-04-28 16:55:00
11:15 AM,55.4,30.2,38,30.02,10.0,NNW,3.5,-,N/A,,Overcast,330,2013-04-28 17:15:00
11:35 AM,57.2,30.2,36,30.02,10.0,NNE,8.1,-,N/A,,Mostly Cloudy,20,2013-04-28 17:35:00
11:55 AM,57.2,30.2,36,30.02,10.0,East,6.9,-,N/A,,Mostly Cloudy,90,2013-04-28 17:55:00
12:15 PM,57.2,30.2,36,30.01,10.0,NNW,4.6,-,N/A,,Overcast,330,2013-04-28 18:15:00
12:55 PM,59.0,30.2,34,29.99,10.0,Calm,Calm,-,N/A,,Overcast,0,2013-04-28 18:55:00
1:15 PM,60.8,30.2,31,29.98,10.0,NE,4.6,-,N/A,,Mostly Cloudy,50,2013-04-28 19:15:00
1:35 PM,60.8,30.2,31,29.97,10.0,NNW,5.8,-,N/A,,Mostly Cloudy,340,2013-04-28 19:35:00
1:55 PM,60.8,28.4,29,29.96,10.0,Calm,Calm,-,N/A,,Mostly Cloudy,0,2013-04-28 19:55:00
2:15 PM,62.6,30.2,30,29.95,10.0,Calm,Calm,-,N/A,,Partly Cloudy,0,2013-04-28 20:15:00
2:35 PM,62.6,28.4,27,29.95,10.0,SE,3.5,-,N/A,,Clear,140,2013-04-28 20:35:00
2:55 PM,62.6,26.6,26,29.94,10.0,Calm,Calm,-,N/A,,Scattered Clouds,0,2013-04-28 20:55:00
3:15 PM,62.6,26.6,26,29.93,10.0,North,8.1,-,N/A,,Mostly Cloudy,350,2013-04-28 21:15:00
3:35 PM,66.2,24.8,21,29.92,10.0,West,6.9,-,N/A,,Mostly Cloudy,260,2013-04-28 21:35:00
3:55 PM,66.2,24.8,21,29.91,10.0,WSW,11.5,-,N/A,,Mostly Cloudy,250,2013-04-28 21:55:00
4:15 PM,66.2,24.8,21,29.90,10.0,SW,17.3,24.2,N/A,,Mostly Cloudy,220,2013-04-28 22:15:00
4:35 PM,64.4,24.8,22,29.90,10.0,West,10.4,24.2,N/A,,Mostly Cloudy,260,2013-04-28 22:35:00
5:15 PM,64.4,24.8,22,29.90,10.0,West,9.2,21.9,N/A,,Overcast,270,2013-04-28 23:15:00
5:35 PM,64.4,24.8,22,29.89,10.0,WNW,11.5,21.9,N/A,,Mostly Cloudy,290,2013-04-28 23:35:00
5:55 PM,62.6,24.8,24,29.89,10.0,NW,8.1,18.4,N/A,,Mostly Cloudy,320,2013-04-28 23:55:00
6:15 PM,62.6,23.0,22,29.89,10.0,NNW,10.4,20.7,N/A,,Mostly Cloudy,330,2013-04-29 00:15:00
6:35 PM,62.6,24.8,24,29.89,10.0,NW,9.2,-,N/A,,Overcast,310,2013-04-29 00:35:00
6:55 PM,62.6,24.8,24,29.89,10.0,NW,9.2,19.6,N/A,,Overcast,320,2013-04-29 00:55:00
7:15 PM,62.6,24.8,24,29.89,10.0,NW,10.4,-,N/A,,Overcast,320,2013-04-29 01:15:00
7:35 PM,60.8,23.0,23,29.89,10.0,NW,9.2,-,N/A,,Mostly Cloudy,320,2013-04-29 01:35:00
7:55 PM,59.0,24.8,27,29.89,10.0,NNW,10.4,-,N/A,,Scattered Clouds,340,2013-04-29 01:55:00
8:15 PM,57.2,24.8,29,29.90,10.0,WNW,5.8,-,N/A,,Partly Cloudy,300,2013-04-29 02:15:00
8:35 PM,55.4,24.8,31,29.90,10.0,North,4.6,-,N/A,,Partly Cloudy,350,2013-04-29 02:35:00
8:55 PM,55.4,24.8,31,29.91,10.0,North,3.5,-,N/A,,Mostly Cloudy,350,2013-04-29 02:55:00
9:15 PM,55.4,24.8,31,29.91,10.0,WNW,3.5,-,N/A,,Mostly Cloudy,290,2013-04-29 03:15:00
9:35 PM,53.6,24.8,33,29.91,10.0,SW,6.9,-,N/A,,Mostly Cloudy,230,2013-04-29 03:35:00
9:55 PM,53.6,24.8,33,29.92,10.0,WNW,5.8,-,N/A,,Overcast,300,2013-04-29 03:55:00
10:15 PM,51.8,24.8,35,29.92,10.0,Calm,Calm,-,N/A,,Mostly Cloudy,0,2013-04-29 04:15:00
10:35 PM,51.8,24.8,35,29.92,10.0,WSW,4.6,-,N/A,,Partly Cloudy,250,2013-04-29 04:35:00
10:55 PM,48.2,24.8,40,29.92,10.0,SE,3.5,-,N/A,,Clear,140,2013-04-29 04:55:00
11:15 PM,48.2,24.8,40,29.92,10.0,South,3.5,-,N/A,,Clear,190,2013-04-29 05:15:00
11:35 PM,48.2,24.8,40,29.92,10.0,WSW,8.1,-,N/A,,Clear,240,2013-04-29 05:35:00
11:55 PM,50.0,23.0,35,29.92,10.0,WSW,6.9,-,N/A,,Clear,250,2013-04-29 05:55:00